sensor_id;sensor_type;location;lat;lon;timestamp;P1;durP1;ratioP1;P2;durP2;ratioP2
35634;SDS011;21757;43.610;1.440;2022-12-11T00:01:49;56.30;;;32.75;;
35634;SDS011;21757;43.610;1.440;2022-12-11T00:04:15;56.63;;;29.92;;
35634;SDS011;21757;43.610;1.440;2022-12-11T00:06:41;60.53;;;30.48;;
35634;SDS011;21757;43.610;1.440;2022-12-11T00:09:07;55.28;;;31.23;;
35634;SDS011;21757;43.610;1.440;2022-12-11T00:11:33;54.40;;;31.08;;
35634;SDS011;21757;43.610;1.440;2022-12-11T00:13:59;53.22;;;30.60;;
35634;SDS011;21757;43.610;1.440;2022-12-11T00:16:25;55.20;;;31.25;;
35634;SDS011;21757;43.610;1.440;2022-12-11T00:18:50;55.60;;;30.38;;
35634;SDS011;21757;43.610;1.440;2022-12-11T00:21:19;55.08;;;31.63;;
35634;SDS011;21757;43.610;1.440;2022-12-11T00:23:45;54.40;;;31.08;;
35634;SDS011;21757;43.610;1.440;2022-12-11T00:26:12;51.97;;;29.83;;
35634;SDS011;21757;43.610;1.440;2022-12-11T00:28:39;55.88;;;28.60;;
35634;SDS011;21757;43.610;1.440;2022-12-11T00:31:12;54.63;;;30.90;;
35634;SDS011;21757;43.610;1.440;2022-12-11T00:33:40;39.63;;;22.10;;
35634;SDS011;21757;43.610;1.440;2022-12-11T00:36:13;55.30;;;30.30;;
35634;SDS011;21757;43.610;1.440;2022-12-11T00:38:41;48.72;;;28.42;;
35634;SDS011;21757;43.610;1.440;2022-12-11T00:41:08;47.90;;;27.40;;
35634;SDS011;21757;43.610;1.440;2022-12-11T00:43:34;55.88;;;29.90;;
35634;SDS011;21757;43.610;1.440;2022-12-11T00:46:02;52.97;;;29.42;;
35634;SDS011;21757;43.610;1.440;2022-12-11T00:48:28;50.33;;;28.38;;
35634;SDS011;21757;43.610;1.440;2022-12-11T00:50:54;49.53;;;27.17;;
35634;SDS011;21757;43.610;1.440;2022-12-11T00:53:20;51.92;;;29.27;;
35634;SDS011;21757;43.610;1.440;2022-12-11T00:55:45;51.70;;;29.58;;
35634;SDS011;21757;43.610;1.440;2022-12-11T00:58:14;55.00;;;30.80;;
35634;SDS011;21757;43.610;1.440;2022-12-11T01:00:40;55.35;;;30.65;;
35634;SDS011;21757;43.610;1.440;2022-12-11T01:03:07;54.00;;;30.13;;
35634;SDS011;21757;43.610;1.440;2022-12-11T01:05:40;55.30;;;30.83;;
35634;SDS011;21757;43.610;1.440;2022-12-11T01:08:15;55.47;;;30.90;;
35634;SDS011;21757;43.610;1.440;2022-12-11T01:10:40;54.67;;;30.17;;
35634;SDS011;21757;43.610;1.440;2022-12-11T01:13:10;58.30;;;31.48;;
35634;SDS011;21757;43.610;1.440;2022-12-11T01:15:39;60.63;;;33.47;;
35634;SDS011;21757;43.610;1.440;2022-12-11T01:18:07;58.95;;;32.47;;
35634;SDS011;21757;43.610;1.440;2022-12-11T01:20:38;68.18;;;34.90;;
35634;SDS011;21757;43.610;1.440;2022-12-11T01:23:05;64.53;;;37.13;;
35634;SDS011;21757;43.610;1.440;2022-12-11T01:25:31;68.65;;;36.75;;
35634;SDS011;21757;43.610;1.440;2022-12-11T01:27:59;72.43;;;38.33;;
35634;SDS011;21757;43.610;1.440;2022-12-11T01:30:27;73.32;;;40.00;;
35634;SDS011;21757;43.610;1.440;2022-12-11T01:32:53;70.93;;;36.58;;
35634;SDS011;21757;43.610;1.440;2022-12-11T01:35:19;73.22;;;39.47;;
35634;SDS011;21757;43.610;1.440;2022-12-11T01:37:45;66.78;;;38.65;;
35634;SDS011;21757;43.610;1.440;2022-12-11T01:40:32;72.13;;;39.22;;
35634;SDS011;21757;43.610;1.440;2022-12-11T01:42:57;71.13;;;37.78;;
35634;SDS011;21757;43.610;1.440;2022-12-11T01:45:25;66.70;;;36.92;;
35634;SDS011;21757;43.610;1.440;2022-12-11T01:51:04;64.55;;;36.28;;
35634;SDS011;21757;43.610;1.440;2022-12-11T01:53:34;70.10;;;37.35;;
35634;SDS011;21757;43.610;1.440;2022-12-11T01:56:19;73.07;;;37.92;;
35634;SDS011;21757;43.610;1.440;2022-12-11T01:58:45;69.20;;;37.75;;
35634;SDS011;21757;43.610;1.440;2022-12-11T02:01:23;70.55;;;37.38;;
35634;SDS011;21757;43.610;1.440;2022-12-11T02:04:01;69.82;;;38.88;;
35634;SDS011;21757;43.610;1.440;2022-12-11T02:06:31;66.50;;;35.28;;
35634;SDS011;21757;43.610;1.440;2022-12-11T02:09:26;68.15;;;35.85;;
35634;SDS011;21757;43.610;1.440;2022-12-11T02:14:40;66.75;;;36.50;;
35634;SDS011;21757;43.610;1.440;2022-12-11T02:17:32;69.82;;;36.05;;
35634;SDS011;21757;43.610;1.440;2022-12-11T02:28:30;59.53;;;31.10;;
35634;SDS011;21757;43.610;1.440;2022-12-11T02:31:04;59.50;;;31.80;;
35634;SDS011;21757;43.610;1.440;2022-12-11T02:33:40;57.40;;;32.28;;
35634;SDS011;21757;43.610;1.440;2022-12-11T02:36:23;57.90;;;31.10;;
35634;SDS011;21757;43.610;1.440;2022-12-11T02:38:52;59.35;;;30.83;;
35634;SDS011;21757;43.610;1.440;2022-12-11T02:41:20;58.33;;;31.52;;
35634;SDS011;21757;43.610;1.440;2022-12-11T02:43:48;53.75;;;31.02;;
35634;SDS011;21757;43.610;1.440;2022-12-11T02:46:17;59.33;;;31.67;;
35634;SDS011;21757;43.610;1.440;2022-12-11T02:48:46;59.60;;;33.10;;
35634;SDS011;21757;43.610;1.440;2022-12-11T02:51:15;56.38;;;31.90;;
35634;SDS011;21757;43.610;1.440;2022-12-11T02:53:43;59.15;;;32.60;;
35634;SDS011;21757;43.610;1.440;2022-12-11T02:56:21;56.97;;;31.20;;
35634;SDS011;21757;43.610;1.440;2022-12-11T02:58:56;58.70;;;31.35;;
35634;SDS011;21757;43.610;1.440;2022-12-11T03:03:55;63.15;;;33.13;;
35634;SDS011;21757;43.610;1.440;2022-12-11T03:06:23;53.55;;;29.50;;
35634;SDS011;21757;43.610;1.440;2022-12-11T03:09:03;52.00;;;28.70;;
35634;SDS011;21757;43.610;1.440;2022-12-11T03:11:34;52.53;;;29.98;;
35634;SDS011;21757;43.610;1.440;2022-12-11T03:13:59;53.45;;;29.25;;
35634;SDS011;21757;43.610;1.440;2022-12-11T03:16:32;54.38;;;28.98;;
35634;SDS011;21757;43.610;1.440;2022-12-11T03:19:08;54.63;;;29.85;;
35634;SDS011;21757;43.610;1.440;2022-12-11T03:21:52;48.55;;;26.42;;
35634;SDS011;21757;43.610;1.440;2022-12-11T03:24:25;45.33;;;25.02;;
35634;SDS011;21757;43.610;1.440;2022-12-11T03:27:09;43.45;;;24.42;;
35634;SDS011;21757;43.610;1.440;2022-12-11T03:29:50;30.88;;;17.23;;
35634;SDS011;21757;43.610;1.440;2022-12-11T03:32:20;40.72;;;23.70;;
35634;SDS011;21757;43.610;1.440;2022-12-11T03:34:57;49.05;;;25.25;;
35634;SDS011;21757;43.610;1.440;2022-12-11T03:37:29;47.03;;;27.33;;
35634;SDS011;21757;43.610;1.440;2022-12-11T03:39:58;49.83;;;27.23;;
35634;SDS011;21757;43.610;1.440;2022-12-11T03:42:31;48.92;;;26.02;;
35634;SDS011;21757;43.610;1.440;2022-12-11T03:44:59;53.45;;;27.02;;
35634;SDS011;21757;43.610;1.440;2022-12-11T03:47:26;44.22;;;26.25;;
35634;SDS011;21757;43.610;1.440;2022-12-11T03:49:54;49.70;;;28.65;;
35634;SDS011;21757;43.610;1.440;2022-12-11T03:52:22;52.25;;;27.95;;
35634;SDS011;21757;43.610;1.440;2022-12-11T03:54:51;48.00;;;27.00;;
35634;SDS011;21757;43.610;1.440;2022-12-11T03:57:21;46.07;;;27.00;;
35634;SDS011;21757;43.610;1.440;2022-12-11T03:59:51;49.40;;;26.35;;
35634;SDS011;21757;43.610;1.440;2022-12-11T04:02:17;48.85;;;27.45;;
35634;SDS011;21757;43.610;1.440;2022-12-11T04:04:43;49.30;;;27.17;;
35634;SDS011;21757;43.610;1.440;2022-12-11T04:07:08;52.20;;;28.77;;
35634;SDS011;21757;43.610;1.440;2022-12-11T04:09:34;50.03;;;26.35;;
35634;SDS011;21757;43.610;1.440;2022-12-11T04:12:00;48.75;;;28.52;;
35634;SDS011;21757;43.610;1.440;2022-12-11T04:14:26;50.20;;;28.23;;
35634;SDS011;21757;43.610;1.440;2022-12-11T04:17:11;56.78;;;28.48;;
35634;SDS011;21757;43.610;1.440;2022-12-11T04:19:57;57.15;;;30.73;;
35634;SDS011;21757;43.610;1.440;2022-12-11T04:22:41;120.00;;;45.92;;
35634;SDS011;21757;43.610;1.440;2022-12-11T04:25:25;118.10;;;41.00;;
35634;SDS011;21757;43.610;1.440;2022-12-11T04:27:51;77.88;;;32.72;;
35634;SDS011;21757;43.610;1.440;2022-12-11T04:30:18;80.35;;;31.60;;
35634;SDS011;21757;43.610;1.440;2022-12-11T04:32:49;57.90;;;28.42;;
35634;SDS011;21757;43.610;1.440;2022-12-11T04:35:17;57.80;;;28.23;;
35634;SDS011;21757;43.610;1.440;2022-12-11T04:37:43;53.58;;;27.50;;
35634;SDS011;21757;43.610;1.440;2022-12-11T04:40:10;84.18;;;37.58;;
35634;SDS011;21757;43.610;1.440;2022-12-11T04:42:38;81.10;;;35.92;;
35634;SDS011;21757;43.610;1.440;2022-12-11T04:45:04;66.03;;;32.40;;
35634;SDS011;21757;43.610;1.440;2022-12-11T04:47:33;51.28;;;28.38;;
35634;SDS011;21757;43.610;1.440;2022-12-11T04:50:00;51.05;;;25.95;;
35634;SDS011;21757;43.610;1.440;2022-12-11T04:52:25;61.42;;;29.70;;
35634;SDS011;21757;43.610;1.440;2022-12-11T04:54:51;46.28;;;25.27;;
35634;SDS011;21757;43.610;1.440;2022-12-11T04:57:17;80.30;;;35.25;;
35634;SDS011;21757;43.610;1.440;2022-12-11T04:59:45;67.60;;;30.88;;
35634;SDS011;21757;43.610;1.440;2022-12-11T05:02:11;75.95;;;33.50;;
35634;SDS011;21757;43.610;1.440;2022-12-11T05:04:37;55.05;;;28.48;;
35634;SDS011;21757;43.610;1.440;2022-12-11T05:07:03;53.38;;;26.40;;
35634;SDS011;21757;43.610;1.440;2022-12-11T05:09:29;47.58;;;25.42;;
35634;SDS011;21757;43.610;1.440;2022-12-11T05:11:56;51.20;;;26.25;;
35634;SDS011;21757;43.610;1.440;2022-12-11T05:14:22;54.65;;;28.30;;
35634;SDS011;21757;43.610;1.440;2022-12-11T05:16:50;50.22;;;28.42;;
35634;SDS011;21757;43.610;1.440;2022-12-11T05:19:16;53.67;;;29.48;;
35634;SDS011;21757;43.610;1.440;2022-12-11T05:21:41;53.47;;;27.23;;
35634;SDS011;21757;43.610;1.440;2022-12-11T05:24:07;71.53;;;31.60;;
35634;SDS011;21757;43.610;1.440;2022-12-11T05:26:39;59.13;;;31.05;;
35634;SDS011;21757;43.610;1.440;2022-12-11T05:29:15;71.25;;;32.08;;
35634;SDS011;21757;43.610;1.440;2022-12-11T05:31:42;52.50;;;28.80;;
35634;SDS011;21757;43.610;1.440;2022-12-11T05:34:15;56.30;;;29.05;;
35634;SDS011;21757;43.610;1.440;2022-12-11T05:36:41;48.28;;;28.30;;
35634;SDS011;21757;43.610;1.440;2022-12-11T05:39:07;58.88;;;30.67;;
35634;SDS011;21757;43.610;1.440;2022-12-11T05:41:33;50.72;;;28.63;;
35634;SDS011;21757;43.610;1.440;2022-12-11T05:43:59;49.50;;;26.90;;
35634;SDS011;21757;43.610;1.440;2022-12-11T05:46:27;59.35;;;30.65;;
35634;SDS011;21757;43.610;1.440;2022-12-11T05:48:54;55.75;;;30.40;;
35634;SDS011;21757;43.610;1.440;2022-12-11T05:51:22;57.65;;;31.65;;
35634;SDS011;21757;43.610;1.440;2022-12-11T05:53:49;53.97;;;30.27;;
35634;SDS011;21757;43.610;1.440;2022-12-11T05:56:20;63.08;;;30.73;;
35634;SDS011;21757;43.610;1.440;2022-12-11T05:58:51;55.17;;;30.38;;
35634;SDS011;21757;43.610;1.440;2022-12-11T06:01:21;53.45;;;31.15;;
35634;SDS011;21757;43.610;1.440;2022-12-11T06:03:50;56.95;;;29.85;;
35634;SDS011;21757;43.610;1.440;2022-12-11T06:06:16;49.47;;;26.55;;
35634;SDS011;21757;43.610;1.440;2022-12-11T06:08:41;44.75;;;26.42;;
35634;SDS011;21757;43.610;1.440;2022-12-11T06:11:07;47.67;;;26.88;;
35634;SDS011;21757;43.610;1.440;2022-12-11T06:13:33;48.75;;;26.10;;
35634;SDS011;21757;43.610;1.440;2022-12-11T06:16:03;42.28;;;24.77;;
35634;SDS011;21757;43.610;1.440;2022-12-11T06:18:30;43.47;;;25.45;;
35634;SDS011;21757;43.610;1.440;2022-12-11T06:20:56;49.35;;;26.40;;
35634;SDS011;21757;43.610;1.440;2022-12-11T06:23:22;43.67;;;25.20;;
35634;SDS011;21757;43.610;1.440;2022-12-11T06:25:48;44.63;;;25.58;;
35634;SDS011;21757;43.610;1.440;2022-12-11T06:28:14;44.55;;;26.35;;
35634;SDS011;21757;43.610;1.440;2022-12-11T06:30:39;46.53;;;27.30;;
35634;SDS011;21757;43.610;1.440;2022-12-11T06:33:05;48.00;;;26.75;;
35634;SDS011;21757;43.610;1.440;2022-12-11T06:35:31;54.28;;;28.35;;
35634;SDS011;21757;43.610;1.440;2022-12-11T06:37:57;46.67;;;25.70;;
35634;SDS011;21757;43.610;1.440;2022-12-11T06:40:23;43.20;;;25.35;;
35634;SDS011;21757;43.610;1.440;2022-12-11T06:42:49;48.15;;;28.23;;
35634;SDS011;21757;43.610;1.440;2022-12-11T06:45:15;47.13;;;26.92;;
35634;SDS011;21757;43.610;1.440;2022-12-11T06:47:40;51.50;;;28.63;;
35634;SDS011;21757;43.610;1.440;2022-12-11T06:50:06;58.42;;;32.05;;
35634;SDS011;21757;43.610;1.440;2022-12-11T06:52:32;48.58;;;28.17;;
35634;SDS011;21757;43.610;1.440;2022-12-11T06:54:58;52.88;;;29.15;;
35634;SDS011;21757;43.610;1.440;2022-12-11T06:57:25;52.55;;;29.67;;
35634;SDS011;21757;43.610;1.440;2022-12-11T06:59:50;62.22;;;33.90;;
35634;SDS011;21757;43.610;1.440;2022-12-11T07:02:17;51.95;;;30.48;;
35634;SDS011;21757;43.610;1.440;2022-12-11T07:04:44;46.42;;;27.38;;
35634;SDS011;21757;43.610;1.440;2022-12-11T07:07:10;46.67;;;25.85;;
35634;SDS011;21757;43.610;1.440;2022-12-11T07:09:36;52.28;;;29.33;;
35634;SDS011;21757;43.610;1.440;2022-12-11T07:12:04;54.97;;;29.25;;
35634;SDS011;21757;43.610;1.440;2022-12-11T07:14:30;48.33;;;27.58;;
35634;SDS011;21757;43.610;1.440;2022-12-11T07:16:56;49.72;;;27.77;;
35634;SDS011;21757;43.610;1.440;2022-12-11T07:19:22;45.08;;;25.17;;
35634;SDS011;21757;43.610;1.440;2022-12-11T07:21:48;46.65;;;26.73;;
35634;SDS011;21757;43.610;1.440;2022-12-11T07:24:14;46.85;;;26.35;;
35634;SDS011;21757;43.610;1.440;2022-12-11T07:26:40;47.90;;;28.00;;
35634;SDS011;21757;43.610;1.440;2022-12-11T07:29:05;59.33;;;32.63;;
35634;SDS011;21757;43.610;1.440;2022-12-11T07:31:31;41.28;;;24.20;;
35634;SDS011;21757;43.610;1.440;2022-12-11T07:34:01;42.50;;;24.10;;
35634;SDS011;21757;43.610;1.440;2022-12-11T07:36:29;42.53;;;24.60;;
35634;SDS011;21757;43.610;1.440;2022-12-11T07:38:55;47.63;;;27.90;;
35634;SDS011;21757;43.610;1.440;2022-12-11T07:41:21;47.80;;;26.67;;
35634;SDS011;21757;43.610;1.440;2022-12-11T07:43:47;42.80;;;24.42;;
35634;SDS011;21757;43.610;1.440;2022-12-11T07:46:15;39.08;;;22.55;;
35634;SDS011;21757;43.610;1.440;2022-12-11T07:48:44;40.13;;;23.15;;
35634;SDS011;21757;43.610;1.440;2022-12-11T07:51:11;41.05;;;22.25;;
35634;SDS011;21757;43.610;1.440;2022-12-11T07:54:00;39.58;;;23.98;;
35634;SDS011;21757;43.610;1.440;2022-12-11T07:56:31;37.85;;;22.92;;
35634;SDS011;21757;43.610;1.440;2022-12-11T07:59:01;37.35;;;21.60;;
35634;SDS011;21757;43.610;1.440;2022-12-11T08:01:29;41.38;;;23.33;;
35634;SDS011;21757;43.610;1.440;2022-12-11T08:03:56;34.08;;;21.65;;
35634;SDS011;21757;43.610;1.440;2022-12-11T08:06:29;41.40;;;23.75;;
35634;SDS011;21757;43.610;1.440;2022-12-11T08:08:57;34.92;;;20.65;;
35634;SDS011;21757;43.610;1.440;2022-12-11T08:11:24;34.78;;;21.17;;
35634;SDS011;21757;43.610;1.440;2022-12-11T08:13:50;38.70;;;21.45;;
35634;SDS011;21757;43.610;1.440;2022-12-11T08:16:16;31.25;;;20.15;;
35634;SDS011;21757;43.610;1.440;2022-12-11T08:18:43;32.13;;;20.05;;
35634;SDS011;21757;43.610;1.440;2022-12-11T08:21:11;70.78;;;34.08;;
35634;SDS011;21757;43.610;1.440;2022-12-11T08:23:39;62.53;;;29.08;;
35634;SDS011;21757;43.610;1.440;2022-12-11T08:26:05;37.70;;;21.95;;
35634;SDS011;21757;43.610;1.440;2022-12-11T08:28:33;38.75;;;20.67;;
35634;SDS011;21757;43.610;1.440;2022-12-11T08:30:59;37.95;;;22.25;;
35634;SDS011;21757;43.610;1.440;2022-12-11T08:33:24;39.55;;;20.55;;
35634;SDS011;21757;43.610;1.440;2022-12-11T08:35:50;38.65;;;21.85;;
35634;SDS011;21757;43.610;1.440;2022-12-11T08:38:22;41.15;;;23.77;;
35634;SDS011;21757;43.610;1.440;2022-12-11T08:40:50;66.03;;;32.45;;
35634;SDS011;21757;43.610;1.440;2022-12-11T08:43:16;36.60;;;21.75;;
35634;SDS011;21757;43.610;1.440;2022-12-11T08:45:42;43.22;;;22.75;;
35634;SDS011;21757;43.610;1.440;2022-12-11T08:48:07;34.72;;;19.65;;
35634;SDS011;21757;43.610;1.440;2022-12-11T08:50:33;31.83;;;18.50;;
35634;SDS011;21757;43.610;1.440;2022-12-11T08:52:59;32.40;;;18.42;;
35634;SDS011;21757;43.610;1.440;2022-12-11T08:55:24;33.70;;;18.02;;
35634;SDS011;21757;43.610;1.440;2022-12-11T08:57:50;34.78;;;19.10;;
35634;SDS011;21757;43.610;1.440;2022-12-11T09:00:16;28.35;;;17.30;;
35634;SDS011;21757;43.610;1.440;2022-12-11T09:02:46;31.55;;;17.63;;
35634;SDS011;21757;43.610;1.440;2022-12-11T09:05:12;32.65;;;17.10;;
35634;SDS011;21757;43.610;1.440;2022-12-11T09:07:37;29.58;;;17.10;;
35634;SDS011;21757;43.610;1.440;2022-12-11T09:10:06;30.50;;;17.58;;
35634;SDS011;21757;43.610;1.440;2022-12-11T09:12:34;35.10;;;19.15;;
35634;SDS011;21757;43.610;1.440;2022-12-11T09:15:02;31.38;;;17.45;;
35634;SDS011;21757;43.610;1.440;2022-12-11T09:17:28;36.75;;;20.45;;
35634;SDS011;21757;43.610;1.440;2022-12-11T09:19:58;31.83;;;17.75;;
35634;SDS011;21757;43.610;1.440;2022-12-11T09:22:24;26.38;;;16.83;;
35634;SDS011;21757;43.610;1.440;2022-12-11T09:24:49;30.20;;;17.40;;
35634;SDS011;21757;43.610;1.440;2022-12-11T09:27:15;29.75;;;17.83;;
35634;SDS011;21757;43.610;1.440;2022-12-11T09:29:41;29.60;;;17.85;;
35634;SDS011;21757;43.610;1.440;2022-12-11T09:32:09;28.45;;;17.30;;
35634;SDS011;21757;43.610;1.440;2022-12-11T09:34:35;29.67;;;17.15;;
35634;SDS011;21757;43.610;1.440;2022-12-11T09:37:01;31.02;;;18.27;;
35634;SDS011;21757;43.610;1.440;2022-12-11T09:39:26;38.22;;;21.13;;
35634;SDS011;21757;43.610;1.440;2022-12-11T09:44:36;31.95;;;18.25;;
35634;SDS011;21757;43.610;1.440;2022-12-11T09:50:14;34.00;;;18.92;;
35634;SDS011;21757;43.610;1.440;2022-12-11T09:55:28;30.13;;;18.70;;
35634;SDS011;21757;43.610;1.440;2022-12-11T09:58:33;35.33;;;20.40;;
35634;SDS011;21757;43.610;1.440;2022-12-11T10:15:15;33.30;;;19.17;;
35634;SDS011;21757;43.610;1.440;2022-12-11T10:17:44;30.23;;;19.23;;
35634;SDS011;21757;43.610;1.440;2022-12-11T10:23:00;30.73;;;18.92;;
35634;SDS011;21757;43.610;1.440;2022-12-11T10:25:30;38.80;;;20.52;;
35634;SDS011;21757;43.610;1.440;2022-12-11T10:27:59;38.17;;;20.20;;
35634;SDS011;21757;43.610;1.440;2022-12-11T10:30:38;37.03;;;20.45;;
35634;SDS011;21757;43.610;1.440;2022-12-11T10:33:22;53.33;;;25.67;;
35634;SDS011;21757;43.610;1.440;2022-12-11T10:35:59;55.85;;;26.65;;
35634;SDS011;21757;43.610;1.440;2022-12-11T10:38:32;51.35;;;27.00;;
35634;SDS011;21757;43.610;1.440;2022-12-11T10:41:10;39.00;;;23.35;;
35634;SDS011;21757;43.610;1.440;2022-12-11T10:43:57;35.05;;;20.45;;
35634;SDS011;21757;43.610;1.440;2022-12-11T10:46:25;38.78;;;22.05;;
35634;SDS011;21757;43.610;1.440;2022-12-11T10:48:53;35.22;;;20.67;;
35634;SDS011;21757;43.610;1.440;2022-12-11T10:51:22;36.90;;;20.92;;
35634;SDS011;21757;43.610;1.440;2022-12-11T10:53:56;40.65;;;22.05;;
35634;SDS011;21757;43.610;1.440;2022-12-11T10:56:44;34.83;;;20.65;;
35634;SDS011;21757;43.610;1.440;2022-12-11T10:59:15;37.45;;;20.60;;
35634;SDS011;21757;43.610;1.440;2022-12-11T11:01:48;31.95;;;19.02;;
35634;SDS011;21757;43.610;1.440;2022-12-11T11:04:18;32.90;;;20.50;;
35634;SDS011;21757;43.610;1.440;2022-12-11T11:06:50;25.88;;;16.95;;
35634;SDS011;21757;43.610;1.440;2022-12-11T11:09:35;29.23;;;17.60;;
35634;SDS011;21757;43.610;1.440;2022-12-11T11:12:01;24.65;;;15.43;;
35634;SDS011;21757;43.610;1.440;2022-12-11T11:14:27;23.60;;;14.63;;
35634;SDS011;21757;43.610;1.440;2022-12-11T11:16:55;29.42;;;17.65;;
35634;SDS011;21757;43.610;1.440;2022-12-11T11:19:31;26.33;;;17.23;;
35634;SDS011;21757;43.610;1.440;2022-12-11T11:22:00;26.63;;;15.77;;
35634;SDS011;21757;43.610;1.440;2022-12-11T11:24:34;23.92;;;16.25;;
35634;SDS011;21757;43.610;1.440;2022-12-11T11:27:50;24.27;;;14.68;;
35634;SDS011;21757;43.610;1.440;2022-12-11T11:29:59;26.92;;;14.85;;
35634;SDS011;21757;43.610;1.440;2022-12-11T11:32:37;22.33;;;14.40;;
35634;SDS011;21757;43.610;1.440;2022-12-11T11:37:35;24.83;;;14.93;;
35634;SDS011;21757;43.610;1.440;2022-12-11T11:40:17;25.70;;;16.63;;
35634;SDS011;21757;43.610;1.440;2022-12-11T11:45:33;25.10;;;16.10;;
35634;SDS011;21757;43.610;1.440;2022-12-11T11:48:21;29.60;;;16.70;;
35634;SDS011;21757;43.610;1.440;2022-12-11T11:51:01;30.75;;;18.30;;
35634;SDS011;21757;43.610;1.440;2022-12-11T11:53:37;24.85;;;16.77;;
35634;SDS011;21757;43.610;1.440;2022-12-11T12:01:34;24.95;;;15.95;;
35634;SDS011;21757;43.610;1.440;2022-12-11T12:04:04;25.17;;;16.23;;
35634;SDS011;21757;43.610;1.440;2022-12-11T12:06:33;27.55;;;16.20;;
35634;SDS011;21757;43.610;1.440;2022-12-11T12:11:47;26.08;;;15.55;;
35634;SDS011;21757;43.610;1.440;2022-12-11T12:19:51;23.58;;;14.15;;
35634;SDS011;21757;43.610;1.440;2022-12-11T12:25:48;21.02;;;12.75;;
35634;SDS011;21757;43.610;1.440;2022-12-11T12:39:16;21.23;;;12.32;;
35634;SDS011;21757;43.610;1.440;2022-12-11T12:45:11;20.17;;;12.50;;
35634;SDS011;21757;43.610;1.440;2022-12-11T12:47:45;19.40;;;12.52;;
35634;SDS011;21757;43.610;1.440;2022-12-11T12:50:16;20.35;;;12.02;;
35634;SDS011;21757;43.610;1.440;2022-12-11T12:52:45;18.25;;;11.05;;
35634;SDS011;21757;43.610;1.440;2022-12-11T12:55:23;20.67;;;12.20;;
35634;SDS011;21757;43.610;1.440;2022-12-11T12:58:01;16.33;;;10.98;;
35634;SDS011;21757;43.610;1.440;2022-12-11T13:00:34;19.20;;;12.50;;
35634;SDS011;21757;43.610;1.440;2022-12-11T13:06:01;17.95;;;11.15;;
35634;SDS011;21757;43.610;1.440;2022-12-11T13:08:47;17.13;;;11.48;;
35634;SDS011;21757;43.610;1.440;2022-12-11T13:11:17;22.40;;;13.43;;
35634;SDS011;21757;43.610;1.440;2022-12-11T13:13:48;16.27;;;10.13;;
35634;SDS011;21757;43.610;1.440;2022-12-11T13:16:43;15.32;;;9.27;;
35634;SDS011;21757;43.610;1.440;2022-12-11T13:21:56;13.15;;;8.38;;
35634;SDS011;21757;43.610;1.440;2022-12-11T13:27:21;15.90;;;8.25;;
35634;SDS011;21757;43.610;1.440;2022-12-11T13:29:49;13.77;;;8.15;;
35634;SDS011;21757;43.610;1.440;2022-12-11T13:34:42;14.43;;;9.02;;
35634;SDS011;21757;43.610;1.440;2022-12-11T13:37:26;14.23;;;8.45;;
35634;SDS011;21757;43.610;1.440;2022-12-11T13:39:54;14.00;;;9.48;;
35634;SDS011;21757;43.610;1.440;2022-12-11T13:42:27;16.40;;;9.55;;
35634;SDS011;21757;43.610;1.440;2022-12-11T13:44:59;14.98;;;10.20;;
35634;SDS011;21757;43.610;1.440;2022-12-11T13:47:26;16.00;;;10.77;;
35634;SDS011;21757;43.610;1.440;2022-12-11T13:49:59;21.60;;;12.10;;
35634;SDS011;21757;43.610;1.440;2022-12-11T13:52:37;20.05;;;11.57;;
35634;SDS011;21757;43.610;1.440;2022-12-11T13:55:11;18.77;;;12.40;;
35634;SDS011;21757;43.610;1.440;2022-12-11T13:57:45;18.48;;;11.65;;
35634;SDS011;21757;43.610;1.440;2022-12-11T14:00:22;18.48;;;12.40;;
35634;SDS011;21757;43.610;1.440;2022-12-11T14:02:54;17.35;;;10.25;;
35634;SDS011;21757;43.610;1.440;2022-12-11T14:05:22;19.08;;;11.98;;
35634;SDS011;21757;43.610;1.440;2022-12-11T14:07:52;18.20;;;12.00;;
35634;SDS011;21757;43.610;1.440;2022-12-11T14:10:21;19.25;;;12.98;;
35634;SDS011;21757;43.610;1.440;2022-12-11T14:12:58;20.73;;;12.90;;
35634;SDS011;21757;43.610;1.440;2022-12-11T14:15:28;17.25;;;11.30;;
35634;SDS011;21757;43.610;1.440;2022-12-11T14:17:55;19.45;;;11.82;;
35634;SDS011;21757;43.610;1.440;2022-12-11T14:20:24;18.63;;;11.35;;
35634;SDS011;21757;43.610;1.440;2022-12-11T14:23:02;20.33;;;12.70;;
35634;SDS011;21757;43.610;1.440;2022-12-11T14:25:29;19.65;;;12.88;;
35634;SDS011;21757;43.610;1.440;2022-12-11T14:27:55;20.13;;;13.15;;
35634;SDS011;21757;43.610;1.440;2022-12-11T14:32:56;22.58;;;12.73;;
35634;SDS011;21757;43.610;1.440;2022-12-11T14:35:39;19.17;;;13.55;;
35634;SDS011;21757;43.610;1.440;2022-12-11T14:38:10;48.28;;;26.30;;
35634;SDS011;21757;43.610;1.440;2022-12-11T14:40:42;25.13;;;15.82;;
35634;SDS011;21757;43.610;1.440;2022-12-11T14:43:20;20.27;;;13.48;;
35634;SDS011;21757;43.610;1.440;2022-12-11T14:45:52;20.67;;;13.43;;
35634;SDS011;21757;43.610;1.440;2022-12-11T14:48:26;22.40;;;13.05;;
35634;SDS011;21757;43.610;1.440;2022-12-11T14:50:58;22.80;;;13.07;;
35634;SDS011;21757;43.610;1.440;2022-12-11T14:53:27;18.95;;;12.13;;
35634;SDS011;21757;43.610;1.440;2022-12-11T14:55:57;18.50;;;11.57;;
35634;SDS011;21757;43.610;1.440;2022-12-11T14:58:26;24.98;;;12.75;;
35634;SDS011;21757;43.610;1.440;2022-12-11T15:01:01;21.10;;;12.45;;
35634;SDS011;21757;43.610;1.440;2022-12-11T15:03:41;22.25;;;13.48;;
35634;SDS011;21757;43.610;1.440;2022-12-11T15:06:21;15.40;;;9.77;;
35634;SDS011;21757;43.610;1.440;2022-12-11T15:09:08;20.63;;;12.13;;
35634;SDS011;21757;43.610;1.440;2022-12-11T15:11:45;22.70;;;12.27;;
35634;SDS011;21757;43.610;1.440;2022-12-11T15:14:12;18.50;;;11.82;;
35634;SDS011;21757;43.610;1.440;2022-12-11T15:16:40;24.25;;;13.63;;
35634;SDS011;21757;43.610;1.440;2022-12-11T15:19:06;23.27;;;13.35;;
35634;SDS011;21757;43.610;1.440;2022-12-11T15:21:43;22.10;;;13.20;;
35634;SDS011;21757;43.610;1.440;2022-12-11T15:24:19;29.38;;;15.48;;
35634;SDS011;21757;43.610;1.440;2022-12-11T15:26:58;24.02;;;14.73;;
35634;SDS011;21757;43.610;1.440;2022-12-11T15:32:14;23.23;;;13.70;;
35634;SDS011;21757;43.610;1.440;2022-12-11T15:39:46;20.98;;;14.68;;
35634;SDS011;21757;43.610;1.440;2022-12-11T15:42:12;22.17;;;14.55;;
35634;SDS011;21757;43.610;1.440;2022-12-11T15:44:40;24.98;;;14.57;;
35634;SDS011;21757;43.610;1.440;2022-12-11T15:47:13;22.30;;;13.55;;
35634;SDS011;21757;43.610;1.440;2022-12-11T15:49:39;23.27;;;14.50;;
35634;SDS011;21757;43.610;1.440;2022-12-11T15:52:05;25.02;;;14.27;;
35634;SDS011;21757;43.610;1.440;2022-12-11T15:54:31;22.25;;;13.80;;
35634;SDS011;21757;43.610;1.440;2022-12-11T15:56:57;24.55;;;14.85;;
35634;SDS011;21757;43.610;1.440;2022-12-11T15:59:29;25.17;;;15.82;;
35634;SDS011;21757;43.610;1.440;2022-12-11T16:01:56;26.25;;;16.35;;
35634;SDS011;21757;43.610;1.440;2022-12-11T16:04:23;30.98;;;17.83;;
35634;SDS011;21757;43.610;1.440;2022-12-11T16:06:49;36.58;;;17.42;;
35634;SDS011;21757;43.610;1.440;2022-12-11T16:09:16;26.38;;;16.55;;
35634;SDS011;21757;43.610;1.440;2022-12-11T16:11:42;25.67;;;16.65;;
35634;SDS011;21757;43.610;1.440;2022-12-11T16:14:08;25.00;;;16.42;;
35634;SDS011;21757;43.610;1.440;2022-12-11T16:16:33;28.60;;;17.65;;
35634;SDS011;21757;43.610;1.440;2022-12-11T16:18:59;29.55;;;16.77;;